sensor_id;sensor_type;location;lat;lon;timestamp;temperature;humidity
24664;DHT22;12791;50.992;13.788;2023-05-10T00:00:17;13.70;47.80
24664;DHT22;12791;50.992;13.788;2023-05-10T00:02:44;13.70;48.00
24664;DHT22;12791;50.992;13.788;2023-05-10T00:05:10;13.80;48.00
24664;DHT22;12791;50.992;13.788;2023-05-10T00:07:37;13.70;48.00
24664;DHT22;12791;50.992;13.788;2023-05-10T00:10:04;13.70;48.30
24664;DHT22;12791;50.992;13.788;2023-05-10T00:12:31;13.70;48.10
24664;DHT22;12791;50.992;13.788;2023-05-10T00:14:59;13.70;48.20
24664;DHT22;12791;50.992;13.788;2023-05-10T00:17:26;13.70;48.30
24664;DHT22;12791;50.992;13.788;2023-05-10T00:19:52;13.70;48.40
24664;DHT22;12791;50.992;13.788;2023-05-10T00:22:19;13.70;48.30
24664;DHT22;12791;50.992;13.788;2023-05-10T00:24:46;13.60;48.30
24664;DHT22;12791;50.992;13.788;2023-05-10T00:27:13;13.60;48.30
24664;DHT22;12791;50.992;13.788;2023-05-10T00:29:39;13.60;49.10
24664;DHT22;12791;50.992;13.788;2023-05-10T00:32:07;13.60;49.10
24664;DHT22;12791;50.992;13.788;2023-05-10T00:34:34;13.50;48.40
24664;DHT22;12791;50.992;13.788;2023-05-10T00:37:01;13.50;48.50
24664;DHT22;12791;50.992;13.788;2023-05-10T00:39:27;13.50;48.50
24664;DHT22;12791;50.992;13.788;2023-05-10T00:41:54;13.40;48.60
24664;DHT22;12791;50.992;13.788;2023-05-10T00:44:21;13.40;48.80
24664;DHT22;12791;50.992;13.788;2023-05-10T00:46:49;13.40;48.90
24664;DHT22;12791;50.992;13.788;2023-05-10T00:49:17;13.30;48.90
24664;DHT22;12791;50.992;13.788;2023-05-10T00:51:44;13.40;49.00
24664;DHT22;12791;50.992;13.788;2023-05-10T00:54:12;13.30;48.90
24664;DHT22;12791;50.992;13.788;2023-05-10T00:56:40;13.30;49.00
24664;DHT22;12791;50.992;13.788;2023-05-10T00:59:08;13.20;49.10
24664;DHT22;12791;50.992;13.788;2023-05-10T01:01:35;13.20;49.30
24664;DHT22;12791;50.992;13.788;2023-05-10T01:04:02;13.20;49.30
24664;DHT22;12791;50.992;13.788;2023-05-10T01:06:30;13.20;49.20
24664;DHT22;12791;50.992;13.788;2023-05-10T01:08:57;13.20;49.40
24664;DHT22;12791;50.992;13.788;2023-05-10T01:11:24;13.20;49.30
24664;DHT22;12791;50.992;13.788;2023-05-10T01:13:55;13.10;49.40
24664;DHT22;12791;50.992;13.788;2023-05-10T01:16:22;13.10;49.60
24664;DHT22;12791;50.992;13.788;2023-05-10T01:18:51;13.10;49.60
24664;DHT22;12791;50.992;13.788;2023-05-10T01:21:26;13.00;49.70
24664;DHT22;12791;50.992;13.788;2023-05-10T01:24:14;13.00;50.00
24664;DHT22;12791;50.992;13.788;2023-05-10T01:27:13;12.90;50.00
24664;DHT22;12791;50.992;13.788;2023-05-10T01:30:05;12.70;49.80
24664;DHT22;12791;50.992;13.788;2023-05-10T01:32:40;12.80;49.90
24664;DHT22;12791;50.992;13.788;2023-05-10T01:35:13;12.80;50.10
24664;DHT22;12791;50.992;13.788;2023-05-10T01:37:46;12.70;50.40
24664;DHT22;12791;50.992;13.788;2023-05-10T01:40:19;12.70;50.70
24664;DHT22;12791;50.992;13.788;2023-05-10T01:42:50;12.70;50.80
24664;DHT22;12791;50.992;13.788;2023-05-10T01:45:21;12.70;51.10
24664;DHT22;12791;50.992;13.788;2023-05-10T01:48:01;12.60;51.10
24664;DHT22;12791;50.992;13.788;2023-05-10T01:50:31;12.60;51.30
24664;DHT22;12791;50.992;13.788;2023-05-10T01:53:00;12.60;51.50
24664;DHT22;12791;50.992;13.788;2023-05-10T01:55:30;12.60;51.60
24664;DHT22;12791;50.992;13.788;2023-05-10T01:58:02;12.60;51.60
24664;DHT22;12791;50.992;13.788;2023-05-10T02:00:29;12.60;51.50
24664;DHT22;12791;50.992;13.788;2023-05-10T02:03:00;12.60;51.60
24664;DHT22;12791;50.992;13.788;2023-05-10T02:05:29;12.50;51.50
24664;DHT22;12791;50.992;13.788;2023-05-10T02:07:57;12.50;51.70
24664;DHT22;12791;50.992;13.788;2023-05-10T02:10:26;12.40;51.80
24664;DHT22;12791;50.992;13.788;2023-05-10T02:12:53;12.40;52.00
24664;DHT22;12791;50.992;13.788;2023-05-10T02:15:23;12.40;52.40
24664;DHT22;12791;50.992;13.788;2023-05-10T02:17:51;12.30;52.40
24664;DHT22;12791;50.992;13.788;2023-05-10T02:20:20;12.40;52.60
24664;DHT22;12791;50.992;13.788;2023-05-10T02:22:49;12.40;52.70
24664;DHT22;12791;50.992;13.788;2023-05-10T02:25:18;12.30;52.60
24664;DHT22;12791;50.992;13.788;2023-05-10T02:27:46;12.30;52.70
24664;DHT22;12791;50.992;13.788;2023-05-10T02:30:14;12.30;53.00
24664;DHT22;12791;50.992;13.788;2023-05-10T02:32:41;12.30;53.10
24664;DHT22;12791;50.992;13.788;2023-05-10T02:35:09;12.30;53.00
24664;DHT22;12791;50.992;13.788;2023-05-10T02:37:38;12.30;53.10
24664;DHT22;12791;50.992;13.788;2023-05-10T02:40:07;12.20;53.20
24664;DHT22;12791;50.992;13.788;2023-05-10T02:42:37;12.10;53.20
24664;DHT22;12791;50.992;13.788;2023-05-10T02:45:10;12.10;53.50
24664;DHT22;12791;50.992;13.788;2023-05-10T02:47:38;12.10;53.80
24664;DHT22;12791;50.992;13.788;2023-05-10T02:50:05;12.00;53.90
24664;DHT22;12791;50.992;13.788;2023-05-10T02:52:40;12.00;54.00
24664;DHT22;12791;50.992;13.788;2023-05-10T02:55:09;12.00;54.10
24664;DHT22;12791;50.992;13.788;2023-05-10T02:57:41;12.00;54.10
24664;DHT22;12791;50.992;13.788;2023-05-10T03:00:10;12.00;54.10
24664;DHT22;12791;50.992;13.788;2023-05-10T03:02:37;12.10;54.40
24664;DHT22;12791;50.992;13.788;2023-05-10T03:05:04;12.00;54.50
24664;DHT22;12791;50.992;13.788;2023-05-10T03:07:30;12.00;54.40
24664;DHT22;12791;50.992;13.788;2023-05-10T03:09:59;12.00;54.60
24664;DHT22;12791;50.992;13.788;2023-05-10T03:12:33;12.00;54.60
24664;DHT22;12791;50.992;13.788;2023-05-10T03:15:11;12.00;54.60
24664;DHT22;12791;50.992;13.788;2023-05-10T03:17:46;12.00;54.60
24664;DHT22;12791;50.992;13.788;2023-05-10T03:20:22;12.00;54.80
24664;DHT22;12791;50.992;13.788;2023-05-10T03:22:53;11.90;54.90
24664;DHT22;12791;50.992;13.788;2023-05-10T03:25:23;11.90;55.00
24664;DHT22;12791;50.992;13.788;2023-05-10T03:27:51;11.90;55.20
24664;DHT22;12791;50.992;13.788;2023-05-10T03:30:18;11.80;55.10
24664;DHT22;12791;50.992;13.788;2023-05-10T03:32:45;11.80;55.30
24664;DHT22;12791;50.992;13.788;2023-05-10T03:35:12;11.80;55.40
24664;DHT22;12791;50.992;13.788;2023-05-10T03:37:39;11.80;55.50
24664;DHT22;12791;50.992;13.788;2023-05-10T03:40:07;11.80;55.70
24664;DHT22;12791;50.992;13.788;2023-05-10T03:42:35;11.90;55.80
24664;DHT22;12791;50.992;13.788;2023-05-10T03:45:02;11.50;55.30
24664;DHT22;12791;50.992;13.788;2023-05-10T03:47:29;11.90;55.50
24664;DHT22;12791;50.992;13.788;2023-05-10T03:49:55;11.90;55.70
24664;DHT22;12791;50.992;13.788;2023-05-10T03:52:22;11.90;55.80
24664;DHT22;12791;50.992;13.788;2023-05-10T03:54:49;11.90;55.80
24664;DHT22;12791;50.992;13.788;2023-05-10T03:57:15;11.90;55.80
24664;DHT22;12791;50.992;13.788;2023-05-10T03:59:43;12.00;55.90
24664;DHT22;12791;50.992;13.788;2023-05-10T04:02:10;12.00;55.70
24664;DHT22;12791;50.992;13.788;2023-05-10T04:04:37;12.00;55.60
24664;DHT22;12791;50.992;13.788;2023-05-10T04:07:03;12.00;55.60
24664;DHT22;12791;50.992;13.788;2023-05-10T04:09:30;12.00;55.70
24664;DHT22;12791;50.992;13.788;2023-05-10T04:11:59;12.00;55.80
24664;DHT22;12791;50.992;13.788;2023-05-10T04:14:25;12.00;55.90
24664;DHT22;12791;50.992;13.788;2023-05-10T04:16:53;12.00;55.90
24664;DHT22;12791;50.992;13.788;2023-05-10T04:19:20;12.00;55.90
24664;DHT22;12791;50.992;13.788;2023-05-10T04:21:47;12.00;56.00
24664;DHT22;12791;50.992;13.788;2023-05-10T04:24:13;12.00;56.00
24664;DHT22;12791;50.992;13.788;2023-05-10T04:26:40;12.10;56.00
24664;DHT22;12791;50.992;13.788;2023-05-10T04:29:07;12.10;55.80
24664;DHT22;12791;50.992;13.788;2023-05-10T04:31:33;12.10;55.80
24664;DHT22;12791;50.992;13.788;2023-05-10T04:34:03;12.10;55.80
24664;DHT22;12791;50.992;13.788;2023-05-10T04:36:29;12.20;55.90
24664;DHT22;12791;50.992;13.788;2023-05-10T04:38:57;12.20;55.80
24664;DHT22;12791;50.992;13.788;2023-05-10T04:41:24;12.20;55.90
24664;DHT22;12791;50.992;13.788;2023-05-10T04:43:51;12.30;55.90
24664;DHT22;12791;50.992;13.788;2023-05-10T04:46:18;12.30;55.70
24664;DHT22;12791;50.992;13.788;2023-05-10T04:48:45;12.40;55.60
24664;DHT22;12791;50.992;13.788;2023-05-10T04:51:12;12.40;55.70
24664;DHT22;12791;50.992;13.788;2023-05-10T04:53:39;12.50;55.60
24664;DHT22;12791;50.992;13.788;2023-05-10T04:56:06;12.50;55.70
24664;DHT22;12791;50.992;13.788;2023-05-10T04:58:33;12.50;55.70
24664;DHT22;12791;50.992;13.788;2023-05-10T05:01:05;12.60;55.70
24664;DHT22;12791;50.992;13.788;2023-05-10T05:03:31;12.60;55.50
24664;DHT22;12791;50.992;13.788;2023-05-10T05:05:58;12.70;55.30
24664;DHT22;12791;50.992;13.788;2023-05-10T05:08:26;12.70;55.10
24664;DHT22;12791;50.992;13.788;2023-05-10T05:10:53;12.80;55.30
24664;DHT22;12791;50.992;13.788;2023-05-10T05:13:20;12.80;55.30
24664;DHT22;12791;50.992;13.788;2023-05-10T05:15:46;12.90;55.10
24664;DHT22;12791;50.992;13.788;2023-05-10T05:18:13;13.00;55.00
24664;DHT22;12791;50.992;13.788;2023-05-10T05:20:39;13.00;54.70
24664;DHT22;12791;50.992;13.788;2023-05-10T05:23:06;13.10;54.90
24664;DHT22;12791;50.992;13.788;2023-05-10T05:25:34;13.10;54.60
24664;DHT22;12791;50.992;13.788;2023-05-10T05:28:01;13.20;54.30
24664;DHT22;12791;50.992;13.788;2023-05-10T05:30:27;13.30;54.40
24664;DHT22;12791;50.992;13.788;2023-05-10T05:32:54;13.30;54.30
24664;DHT22;12791;50.992;13.788;2023-05-10T05:35:21;13.40;54.20
24664;DHT22;12791;50.992;13.788;2023-05-10T05:37:48;13.40;54.20
24664;DHT22;12791;50.992;13.788;2023-05-10T05:40:15;13.50;53.90
24664;DHT22;12791;50.992;13.788;2023-05-10T05:42:43;13.60;53.70
24664;DHT22;12791;50.992;13.788;2023-05-10T05:45:09;13.70;53.40
24664;DHT22;12791;50.992;13.788;2023-05-10T05:47:38;13.70;53.50
24664;DHT22;12791;50.992;13.788;2023-05-10T05:50:05;13.80;53.60
24664;DHT22;12791;50.992;13.788;2023-05-10T05:52:32;13.80;53.60
24664;DHT22;12791;50.992;13.788;2023-05-10T05:54:59;13.90;53.10
24664;DHT22;12791;50.992;13.788;2023-05-10T05:57:26;13.90;53.20
24664;DHT22;12791;50.992;13.788;2023-05-10T05:59:54;14.00;53.20
24664;DHT22;12791;50.992;13.788;2023-05-10T06:02:20;14.00;52.80
24664;DHT22;12791;50.992;13.788;2023-05-10T06:04:47;14.10;53.10
24664;DHT22;12791;50.992;13.788;2023-05-10T06:07:13;14.20;52.50
24664;DHT22;12791;50.992;13.788;2023-05-10T06:09:40;14.20;52.60
24664;DHT22;12791;50.992;13.788;2023-05-10T06:12:07;14.20;52.70
24664;DHT22;12791;50.992;13.788;2023-05-10T06:14:33;14.30;52.40
24664;DHT22;12791;50.992;13.788;2023-05-10T06:17:01;14.30;52.40
24664;DHT22;12791;50.992;13.788;2023-05-10T06:19:30;14.40;52.50
24664;DHT22;12791;50.992;13.788;2023-05-10T06:21:57;14.50;51.90
24664;DHT22;12791;50.992;13.788;2023-05-10T06:24:23;14.60;51.60
24664;DHT22;12791;50.992;13.788;2023-05-10T06:26:50;14.60;51.60
24664;DHT22;12791;50.992;13.788;2023-05-10T06:29:16;14.70;51.70
24664;DHT22;12791;50.992;13.788;2023-05-10T06:31:43;14.70;51.70
24664;DHT22;12791;50.992;13.788;2023-05-10T06:34:11;14.80;51.70
24664;DHT22;12791;50.992;13.788;2023-05-10T06:36:38;14.80;51.70
24664;DHT22;12791;50.992;13.788;2023-05-10T06:39:05;14.80;51.30
24664;DHT22;12791;50.992;13.788;2023-05-10T06:41:32;15.00;51.70
24664;DHT22;12791;50.992;13.788;2023-05-10T06:43:59;15.00;51.20
24664;DHT22;12791;50.992;13.788;2023-05-10T06:46:25;15.00;50.70
24664;DHT22;12791;50.992;13.788;2023-05-10T06:48:52;15.10;50.80
24664;DHT22;12791;50.992;13.788;2023-05-10T06:51:20;15.10;51.10
24664;DHT22;12791;50.992;13.788;2023-05-10T06:53:47;15.20;50.70
24664;DHT22;12791;50.992;13.788;2023-05-10T06:56:14;15.20;50.40
24664;DHT22;12791;50.992;13.788;2023-05-10T06:58:40;15.30;50.60
24664;DHT22;12791;50.992;13.788;2023-05-10T07:01:07;15.40;50.20
24664;DHT22;12791;50.992;13.788;2023-05-10T07:03:33;15.50;49.90
24664;DHT22;12791;50.992;13.788;2023-05-10T07:06:01;15.50;50.40
24664;DHT22;12791;50.992;13.788;2023-05-10T07:08:30;15.60;50.50
24664;DHT22;12791;50.992;13.788;2023-05-10T07:11:01;15.70;49.70
24664;DHT22;12791;50.992;13.788;2023-05-10T07:13:29;15.70;49.90
24664;DHT22;12791;50.992;13.788;2023-05-10T07:15:55;15.70;49.80
24664;DHT22;12791;50.992;13.788;2023-05-10T07:18:22;15.70;49.60
24664;DHT22;12791;50.992;13.788;2023-05-10T07:20:49;15.80;49.40
24664;DHT22;12791;50.992;13.788;2023-05-10T07:23:15;15.90;49.60
24664;DHT22;12791;50.992;13.788;2023-05-10T07:25:46;15.90;49.80
24664;DHT22;12791;50.992;13.788;2023-05-10T07:28:13;15.90;49.60
24664;DHT22;12791;50.992;13.788;2023-05-10T07:30:39;16.00;49.60
24664;DHT22;12791;50.992;13.788;2023-05-10T07:33:06;16.10;49.80
24664;DHT22;12791;50.992;13.788;2023-05-10T07:35:33;16.20;49.60
24664;DHT22;12791;50.992;13.788;2023-05-10T07:38:00;16.20;49.10
24664;DHT22;12791;50.992;13.788;2023-05-10T07:40:27;16.20;49.30
24664;DHT22;12791;50.992;13.788;2023-05-10T07:42:55;16.20;49.00
24664;DHT22;12791;50.992;13.788;2023-05-10T07:45:22;16.20;49.30
24664;DHT22;12791;50.992;13.788;2023-05-10T07:47:49;16.30;49.60
24664;DHT22;12791;50.992;13.788;2023-05-10T07:50:15;16.30;49.40
24664;DHT22;12791;50.992;13.788;2023-05-10T07:52:42;16.40;49.70
24664;DHT22;12791;50.992;13.788;2023-05-10T07:55:09;16.40;49.90
24664;DHT22;12791;50.992;13.788;2023-05-10T07:57:36;16.50;49.90
24664;DHT22;12791;50.992;13.788;2023-05-10T08:00:05;16.60;49.80
24664;DHT22;12791;50.992;13.788;2023-05-10T08:02:32;16.60;49.50
24664;DHT22;12791;50.992;13.788;2023-05-10T08:04:59;16.70;49.10
24664;DHT22;12791;50.992;13.788;2023-05-10T08:07:26;16.70;49.00
24664;DHT22;12791;50.992;13.788;2023-05-10T08:09:52;16.70;48.60
24664;DHT22;12791;50.992;13.788;2023-05-10T08:12:19;16.90;48.80
24664;DHT22;12791;50.992;13.788;2023-05-10T08:14:45;16.90;48.80
24664;DHT22;12791;50.992;13.788;2023-05-10T08:17:13;17.00;48.30
24664;DHT22;12791;50.992;13.788;2023-05-10T08:19:40;17.00;48.60
24664;DHT22;12791;50.992;13.788;2023-05-10T08:22:07;17.00;48.50
24664;DHT22;12791;50.992;13.788;2023-05-10T08:24:33;17.10;48.30
24664;DHT22;12791;50.992;13.788;2023-05-10T08:27:04;17.10;48.30
24664;DHT22;12791;50.992;13.788;2023-05-10T08:29:31;17.10;48.10
24664;DHT22;12791;50.992;13.788;2023-05-10T08:31:57;17.20;48.90
24664;DHT22;12791;50.992;13.788;2023-05-10T08:34:25;17.20;49.00
24664;DHT22;12791;50.992;13.788;2023-05-10T08:36:52;17.20;48.90
24664;DHT22;12791;50.992;13.788;2023-05-10T08:39:18;17.30;49.00
24664;DHT22;12791;50.992;13.788;2023-05-10T08:41:46;17.40;48.10
24664;DHT22;12791;50.992;13.788;2023-05-10T08:44:15;17.40;47.60
24664;DHT22;12791;50.992;13.788;2023-05-10T08:46:46;17.40;47.50
24664;DHT22;12791;50.992;13.788;2023-05-10T08:49:14;17.50;47.30
24664;DHT22;12791;50.992;13.788;2023-05-10T08:51:49;17.50;47.80
24664;DHT22;12791;50.992;13.788;2023-05-10T08:54:17;17.60;48.00
24664;DHT22;12791;50.992;13.788;2023-05-10T08:56:43;17.50;47.70
24664;DHT22;12791;50.992;13.788;2023-05-10T08:59:10;17.60;48.10
24664;DHT22;12791;50.992;13.788;2023-05-10T09:01:40;17.60;48.10
24664;DHT22;12791;50.992;13.788;2023-05-10T09:04:09;17.70;47.70
24664;DHT22;12791;50.992;13.788;2023-05-10T09:06:37;17.70;47.80
24664;DHT22;12791;50.992;13.788;2023-05-10T09:09:06;17.70;47.80
24664;DHT22;12791;50.992;13.788;2023-05-10T09:11:33;17.80;47.80
24664;DHT22;12791;50.992;13.788;2023-05-10T09:14:00;17.80;47.70
24664;DHT22;12791;50.992;13.788;2023-05-10T09:16:27;17.80;47.50
24664;DHT22;12791;50.992;13.788;2023-05-10T09:18:54;17.90;47.00
24664;DHT22;12791;50.992;13.788;2023-05-10T09:21:20;18.00;47.90
24664;DHT22;12791;50.992;13.788;2023-05-10T09:23:47;18.10;47.40
24664;DHT22;12791;50.992;13.788;2023-05-10T09:26:16;18.10;47.50
24664;DHT22;12791;50.992;13.788;2023-05-10T09:28:53;18.10;46.80
24664;DHT22;12791;50.992;13.788;2023-05-10T09:31:20;18.10;47.20
24664;DHT22;12791;50.992;13.788;2023-05-10T09:33:48;18.10;47.70
24664;DHT22;12791;50.992;13.788;2023-05-10T09:36:15;18.10;47.10
24664;DHT22;12791;50.992;13.788;2023-05-10T09:38:45;18.10;46.90
24664;DHT22;12791;50.992;13.788;2023-05-10T09:41:17;18.20;47.00
24664;DHT22;12791;50.992;13.788;2023-05-10T09:43:44;18.20;47.40
24664;DHT22;12791;50.992;13.788;2023-05-10T09:46:11;18.20;47.60
24664;DHT22;12791;50.992;13.788;2023-05-10T09:48:42;18.20;47.50
24664;DHT22;12791;50.992;13.788;2023-05-10T09:51:09;18.20;47.30
24664;DHT22;12791;50.992;13.788;2023-05-10T09:53:35;18.30;47.30
24664;DHT22;12791;50.992;13.788;2023-05-10T09:56:02;18.30;47.30
24664;DHT22;12791;50.992;13.788;2023-05-10T09:58:30;18.40;46.80
24664;DHT22;12791;50.992;13.788;2023-05-10T10:00:57;18.50;46.70
24664;DHT22;12791;50.992;13.788;2023-05-10T10:03:24;18.50;47.10
24664;DHT22;12791;50.992;13.788;2023-05-10T10:05:51;18.50;47.40
24664;DHT22;12791;50.992;13.788;2023-05-10T10:08:18;18.50;46.70
24664;DHT22;12791;50.992;13.788;2023-05-10T10:10:46;18.60;46.50
24664;DHT22;12791;50.992;13.788;2023-05-10T10:13:13;18.60;46.50
24664;DHT22;12791;50.992;13.788;2023-05-10T10:15:42;18.60;46.30
24664;DHT22;12791;50.992;13.788;2023-05-10T10:18:12;18.60;45.90
24664;DHT22;12791;50.992;13.788;2023-05-10T10:20:39;18.60;46.20
24664;DHT22;12791;50.992;13.788;2023-05-10T10:23:06;18.60;46.40
24664;DHT22;12791;50.992;13.788;2023-05-10T10:25:34;18.70;47.00
24664;DHT22;12791;50.992;13.788;2023-05-10T10:28:14;18.70;46.80
24664;DHT22;12791;50.992;13.788;2023-05-10T10:30:43;18.80;46.20
24664;DHT22;12791;50.992;13.788;2023-05-10T10:33:30;18.70;46.10
24664;DHT22;12791;50.992;13.788;2023-05-10T10:36:01;18.80;46.20
24664;DHT22;12791;50.992;13.788;2023-05-10T10:38:36;18.80;46.50
24664;DHT22;12791;50.992;13.788;2023-05-10T10:41:10;18.80;46.20
24664;DHT22;12791;50.992;13.788;2023-05-10T10:43:37;18.80;46.50
24664;DHT22;12791;50.992;13.788;2023-05-10T10:46:12;18.80;46.20
24664;DHT22;12791;50.992;13.788;2023-05-10T10:48:40;18.80;46.20
24664;DHT22;12791;50.992;13.788;2023-05-10T10:51:07;18.80;47.00
24664;DHT22;12791;50.992;13.788;2023-05-10T10:53:33;18.90;46.90
24664;DHT22;12791;50.992;13.788;2023-05-10T10:56:06;18.90;46.30
24664;DHT22;12791;50.992;13.788;2023-05-10T10:58:34;18.90;45.40
24664;DHT22;12791;50.992;13.788;2023-05-10T11:01:14;18.90;45.20
24664;DHT22;12791;50.992;13.788;2023-05-10T11:04:16;18.90;46.60
24664;DHT22;12791;50.992;13.788;2023-05-10T11:06:32;18.90;45.10
24664;DHT22;12791;50.992;13.788;2023-05-10T11:09:00;19.00;45.40
24664;DHT22;12791;50.992;13.788;2023-05-10T11:11:31;19.00;45.50
24664;DHT22;12791;50.992;13.788;2023-05-10T11:14:03;19.00;45.80
24664;DHT22;12791;50.992;13.788;2023-05-10T11:16:41;19.00;45.80
24664;DHT22;12791;50.992;13.788;2023-05-10T11:19:09;19.00;45.90
24664;DHT22;12791;50.992;13.788;2023-05-10T11:21:45;19.00;45.60
24664;DHT22;12791;50.992;13.788;2023-05-10T11:24:14;19.10;45.70
24664;DHT22;12791;50.992;13.788;2023-05-10T11:26:42;19.10;45.30
24664;DHT22;12791;50.992;13.788;2023-05-10T11:29:08;19.20;44.90
24664;DHT22;12791;50.992;13.788;2023-05-10T11:31:42;19.20;44.70
24664;DHT22;12791;50.992;13.788;2023-05-10T11:34:09;19.20;44.70
24664;DHT22;12791;50.992;13.788;2023-05-10T11:36:36;19.30;45.20
24664;DHT22;12791;50.992;13.788;2023-05-10T11:39:04;19.30;45.30
24664;DHT22;12791;50.992;13.788;2023-05-10T11:41:31;19.30;44.80
24664;DHT22;12791;50.992;13.788;2023-05-10T11:43:58;19.40;44.50
24664;DHT22;12791;50.992;13.788;2023-05-10T11:46:26;19.40;44.90
24664;DHT22;12791;50.992;13.788;2023-05-10T11:48:57;19.40;44.80
24664;DHT22;12791;50.992;13.788;2023-05-10T11:51:25;19.50;44.10
24664;DHT22;12791;50.992;13.788;2023-05-10T11:53:53;19.50;43.30
24664;DHT22;12791;50.992;13.788;2023-05-10T11:56:20;19.50;44.30
24664;DHT22;12791;50.992;13.788;2023-05-10T11:58:53;19.60;44.80
24664;DHT22;12791;50.992;13.788;2023-05-10T12:01:21;19.60;44.40
24664;DHT22;12791;50.992;13.788;2023-05-10T12:03:48;19.60;44.40
24664;DHT22;12791;50.992;13.788;2023-05-10T12:06:17;19.70;44.70
24664;DHT22;12791;50.992;13.788;2023-05-10T12:08:45;19.70;45.10
24664;DHT22;12791;50.992;13.788;2023-05-10T12:11:12;19.80;43.20
24664;DHT22;12791;50.992;13.788;2023-05-10T12:13:41;19.80;43.30
24664;DHT22;12791;50.992;13.788;2023-05-10T12:16:16;19.80;43.70
24664;DHT22;12791;50.992;13.788;2023-05-10T12:18:43;19.90;44.40
24664;DHT22;12791;50.992;13.788;2023-05-10T12:21:10;19.90;43.90
24664;DHT22;12791;50.992;13.788;2023-05-10T12:23:39;19.90;43.80
24664;DHT22;12791;50.992;13.788;2023-05-10T12:26:06;20.00;44.00
24664;DHT22;12791;50.992;13.788;2023-05-10T12:28:35;20.00;43.70
24664;DHT22;12791;50.992;13.788;2023-05-10T12:31:02;20.00;43.90
24664;DHT22;12791;50.992;13.788;2023-05-10T12:33:35;20.10;44.20
24664;DHT22;12791;50.992;13.788;2023-05-10T12:36:02;20.10;44.10
24664;DHT22;12791;50.992;13.788;2023-05-10T12:38:31;20.20;44.50
24664;DHT22;12791;50.992;13.788;2023-05-10T12:41:00;20.20;44.20
24664;DHT22;12791;50.992;13.788;2023-05-10T12:43:27;20.20;43.60
24664;DHT22;12791;50.992;13.788;2023-05-10T12:45:54;20.20;43.90
24664;DHT22;12791;50.992;13.788;2023-05-10T12:48:21;20.20;43.80
24664;DHT22;12791;50.992;13.788;2023-05-10T12:50:48;20.20;43.70
24664;DHT22;12791;50.992;13.788;2023-05-10T12:53:15;20.20;43.70
24664;DHT22;12791;50.992;13.788;2023-05-10T12:55:42;20.30;43.70
24664;DHT22;12791;50.992;13.788;2023-05-10T12:58:10;20.30;43.50
24664;DHT22;12791;50.992;13.788;2023-05-10T13:00:36;20.30;43.40
24664;DHT22;12791;50.992;13.788;2023-05-10T13:03:04;20.30;43.20
24664;DHT22;12791;50.992;13.788;2023-05-10T13:05:31;20.30;43.30
24664;DHT22;12791;50.992;13.788;2023-05-10T13:07:58;20.40;43.60
24664;DHT22;12791;50.992;13.788;2023-05-10T13:10:24;20.40;43.60
24664;DHT22;12791;50.992;13.788;2023-05-10T13:12:51;20.50;43.20
24664;DHT22;12791;50.992;13.788;2023-05-10T13:15:19;20.50;43.30
24664;DHT22;12791;50.992;13.788;2023-05-10T13:17:45;20.60;43.30
24664;DHT22;12791;50.992;13.788;2023-05-10T13:20:12;20.70;43.10
24664;DHT22;12791;50.992;13.788;2023-05-10T13:22:40;20.70;42.20
24664;DHT22;12791;50.992;13.788;2023-05-10T13:25:07;20.80;42.40
24664;DHT22;12791;50.992;13.788;2023-05-10T13:27:34;20.80;42.30
24664;DHT22;12791;50.992;13.788;2023-05-10T13:30:01;20.70;42.20
24664;DHT22;12791;50.992;13.788;2023-05-10T13:32:29;20.70;41.80
24664;DHT22;12791;50.992;13.788;2023-05-10T13:34:56;20.70;42.10
24664;DHT22;12791;50.992;13.788;2023-05-10T13:37:23;20.70;42.10
24664;DHT22;12791;50.992;13.788;2023-05-10T13:39:49;20.70;42.10
24664;DHT22;12791;50.992;13.788;2023-05-10T13:42:17;20.70;42.00
24664;DHT22;12791;50.992;13.788;2023-05-10T13:44:43;20.70;42.10
24664;DHT22;12791;50.992;13.788;2023-05-10T13:47:10;20.70;42.00
24664;DHT22;12791;50.992;13.788;2023-05-10T13:49:38;20.70;41.80
24664;DHT22;12791;50.992;13.788;2023-05-10T13:52:05;20.70;42.00
24664;DHT22;12791;50.992;13.788;2023-05-10T13:54:32;20.70;42.40
24664;DHT22;12791;50.992;13.788;2023-05-10T13:56:59;20.80;42.40
24664;DHT22;12791;50.992;13.788;2023-05-10T13:59:26;20.70;42.20
24664;DHT22;12791;50.992;13.788;2023-05-10T14:01:52;20.80;42.10
24664;DHT22;12791;50.992;13.788;2023-05-10T14:04:19;20.70;42.20
24664;DHT22;12791;50.992;13.788;2023-05-10T14:06:47;20.70;41.80
24664;DHT22;12791;50.992;13.788;2023-05-10T14:09:13;20.70;42.00
24664;DHT22;12791;50.992;13.788;2023-05-10T14:11:40;20.70;42.50
24664;DHT22;12791;50.992;13.788;2023-05-10T14:14:10;20.70;41.90
24664;DHT22;12791;50.992;13.788;2023-05-10T14:16:36;20.70;41.80
24664;DHT22;12791;50.992;13.788;2023-05-10T14:19:03;20.70;42.00
24664;DHT22;12791;50.992;13.788;2023-05-10T14:21:30;20.70;41.20
24664;DHT22;12791;50.992;13.788;2023-05-10T14:23:58;20.60;41.70
24664;DHT22;12791;50.992;13.788;2023-05-10T14:26:24;20.60;42.20
24664;DHT22;12791;50.992;13.788;2023-05-10T14:28:51;20.60;42.30
24664;DHT22;12791;50.992;13.788;2023-05-10T14:31:18;20.60;42.30
24664;DHT22;12791;50.992;13.788;2023-05-10T14:33:45;20.60;42.20
24664;DHT22;12791;50.992;13.788;2023-05-10T14:36:12;20.60;42.20
24664;DHT22;12791;50.992;13.788;2023-05-10T14:38:39;20.50;42.10
24664;DHT22;12791;50.992;13.788;2023-05-10T14:41:07;20.50;42.00
24664;DHT22;12791;50.992;13.788;2023-05-10T14:43:34;20.50;42.30
24664;DHT22;12791;50.992;13.788;2023-05-10T14:46:01;20.50;42.50
24664;DHT22;12791;50.992;13.788;2023-05-10T14:48:28;20.50;42.60
24664;DHT22;12791;50.992;13.788;2023-05-10T14:50:54;20.50;42.70
24664;DHT22;12791;50.992;13.788;2023-05-10T14:53:21;20.40;42.50
24664;DHT22;12791;50.992;13.788;2023-05-10T14:55:47;20.40;42.70
24664;DHT22;12791;50.992;13.788;2023-05-10T14:58:15;20.40;42.00
24664;DHT22;12791;50.992;13.788;2023-05-10T15:00:42;20.40;41.90
24664;DHT22;12791;50.992;13.788;2023-05-10T15:03:09;20.40;42.30
24664;DHT22;12791;50.992;13.788;2023-05-10T15:05:35;20.30;41.30
24664;DHT22;12791;50.992;13.788;2023-05-10T15:08:03;20.20;42.00
24664;DHT22;12791;50.992;13.788;2023-05-10T15:10:29;20.10;42.40
24664;DHT22;12791;50.992;13.788;2023-05-10T15:12:58;20.10;42.60
24664;DHT22;12791;50.992;13.788;2023-05-10T15:15:26;20.00;43.00
24664;DHT22;12791;50.992;13.788;2023-05-10T15:17:53;20.00;43.50
24664;DHT22;12791;50.992;13.788;2023-05-10T15:20:19;19.90;43.70